createdAt,value
2022-11-16T00:00:02.799Z,13.74
2022-11-16T00:02:32.206Z,13.73
2022-11-16T00:04:58.849Z,13.73
2022-11-16T00:07:26.772Z,13.90
2022-11-16T00:09:53.321Z,13.74
2022-11-16T00:12:19.809Z,13.85
2022-11-16T00:14:46.472Z,13.82
2022-11-16T00:17:12.906Z,13.74
2022-11-16T00:19:39.527Z,13.89
2022-11-16T00:22:05.999Z,13.87
2022-11-16T00:24:34.178Z,13.81
2022-11-16T00:27:00.919Z,13.84
2022-11-16T00:29:27.701Z,13.82
2022-11-16T00:31:54.886Z,13.63
2022-11-16T00:34:22.080Z,13.80
2022-11-16T00:36:48.934Z,13.75
2022-11-16T00:39:16.819Z,13.72
2022-11-16T00:41:45.304Z,13.80
2022-11-16T00:44:12.045Z,13.71
2022-11-16T00:46:38.662Z,13.78
2022-11-16T00:49:06.050Z,13.85
2022-11-16T00:51:32.788Z,13.78
2022-11-16T00:53:59.287Z,13.64
2022-11-16T00:56:25.782Z,13.71
2022-11-16T00:58:53.652Z,13.68
2022-11-16T01:01:20.294Z,13.56
2022-11-16T01:03:46.812Z,13.58
2022-11-16T01:06:15.122Z,13.58
2022-11-16T01:08:43.120Z,13.70
2022-11-16T01:11:12.511Z,13.68
2022-11-16T01:13:38.971Z,13.63
2022-11-16T01:16:07.271Z,13.79
2022-11-16T01:18:34.153Z,13.59
2022-11-16T01:21:00.818Z,13.51
2022-11-16T01:23:27.325Z,13.68
2022-11-16T01:25:56.335Z,13.64
2022-11-16T01:28:22.844Z,13.71
2022-11-16T01:30:49.622Z,13.58
2022-11-16T01:33:17.425Z,13.71
2022-11-16T01:35:43.917Z,13.61
2022-11-16T01:38:10.757Z,13.70
2022-11-16T01:40:37.918Z,13.58
2022-11-16T01:43:15.622Z,13.58
2022-11-16T01:45:42.406Z,13.69
2022-11-16T01:48:10.680Z,13.79
2022-11-16T01:50:38.938Z,13.47
2022-11-16T01:53:08.394Z,13.59
2022-11-16T01:55:37.187Z,13.42
2022-11-16T01:58:04.454Z,13.56
2022-11-16T02:00:30.950Z,13.66
2022-11-16T02:02:57.413Z,13.61
2022-11-16T02:05:33.998Z,13.56
2022-11-16T02:08:18.501Z,13.61
2022-11-16T02:11:02.756Z,13.30
2022-11-16T02:13:39.664Z,13.47
2022-11-16T02:16:17.055Z,13.38
2022-11-16T02:18:51.848Z,13.41
2022-11-16T02:21:35.798Z,13.47
2022-11-16T02:24:34.117Z,13.34
2022-11-16T02:27:40.185Z,13.62
2022-11-16T02:30:08.938Z,13.51
2022-11-16T02:32:41.145Z,13.43
2022-11-16T02:35:13.610Z,13.36
2022-11-16T02:37:45.350Z,13.41
2022-11-16T02:40:16.040Z,13.44
2022-11-16T02:42:45.479Z,13.63
2022-11-16T02:45:19.307Z,13.46
2022-11-16T02:47:48.410Z,13.52
2022-11-16T02:50:17.933Z,13.61
2022-11-16T02:52:44.547Z,13.66
2022-11-16T02:55:11.756Z,13.65
2022-11-16T02:57:44.286Z,13.70
2022-11-16T03:00:18.736Z,13.84
2022-11-16T03:02:54.103Z,13.76
2022-11-16T03:05:24.881Z,13.77
2022-11-16T03:07:59.417Z,13.66
2022-11-16T03:10:26.703Z,13.66
2022-11-16T03:12:53.492Z,13.82
2022-11-16T03:15:21.623Z,13.61
2022-11-16T03:17:50.255Z,13.57
2022-11-16T03:20:21.848Z,13.64
2022-11-16T03:22:52.279Z,13.56
2022-11-16T03:25:20.704Z,13.64
2022-11-16T03:27:52.973Z,13.69
2022-11-16T03:30:24.054Z,13.73
2022-11-16T03:32:58.714Z,13.77
2022-11-16T03:35:30.086Z,13.86
2022-11-16T03:37:59.708Z,13.71
2022-11-16T03:40:28.953Z,13.74
2022-11-16T03:42:56.508Z,13.55
2022-11-16T03:45:24.721Z,13.72
2022-11-16T03:47:51.334Z,13.70
2022-11-16T03:50:17.837Z,13.64
2022-11-16T03:52:44.328Z,13.63
2022-11-16T03:55:10.934Z,13.63
2022-11-16T03:57:37.397Z,13.67
2022-11-16T04:00:04.673Z,13.57
2022-11-16T04:02:32.531Z,13.53
2022-11-16T04:04:59.031Z,13.69
2022-11-16T04:07:25.632Z,13.66
2022-11-16T04:09:52.146Z,13.55
2022-11-16T04:12:18.632Z,13.42
2022-11-16T04:14:45.243Z,13.65
2022-11-16T04:17:13.082Z,13.48
2022-11-16T04:19:40.934Z,13.76
2022-11-16T04:22:14.284Z,13.67
2022-11-16T04:24:44.140Z,13.62
2022-11-16T04:27:15.541Z,13.58
2022-11-16T04:29:42.444Z,13.71
2022-11-16T04:32:10.095Z,13.73
2022-11-16T04:34:36.585Z,13.54
2022-11-16T04:37:04.397Z,13.70
2022-11-16T04:39:30.916Z,13.41
2022-11-16T04:41:57.522Z,13.47
2022-11-16T04:44:29.795Z,13.56
2022-11-16T04:46:56.714Z,13.38
2022-11-16T04:49:23.290Z,13.41
2022-11-16T04:51:49.781Z,13.39
2022-11-16T04:54:17.878Z,13.63
2022-11-16T04:56:44.445Z,13.55
2022-11-16T04:59:11.081Z,13.39
2022-11-16T05:01:37.579Z,13.40
2022-11-16T05:04:04.510Z,13.46
2022-11-16T05:06:31.043Z,13.44
2022-11-16T05:08:57.521Z,13.48
2022-11-16T05:11:25.400Z,13.45
2022-11-16T05:13:51.996Z,13.29
2022-11-16T05:16:18.535Z,13.39
2022-11-16T05:18:45.261Z,13.54
2022-11-16T05:21:11.730Z,13.48
2022-11-16T05:23:38.403Z,13.35
2022-11-16T05:26:05.064Z,13.41
2022-11-16T05:28:33.253Z,13.33
2022-11-16T05:31:01.274Z,13.16
2022-11-16T05:33:27.781Z,13.51
2022-11-16T05:35:54.380Z,13.35
2022-11-16T05:38:20.855Z,13.47
2022-11-16T05:40:47.633Z,13.53
2022-11-16T05:43:14.219Z,13.74
2022-11-16T05:45:42.572Z,13.62
2022-11-16T05:48:09.100Z,13.55
2022-11-16T05:50:41.362Z,13.56
2022-11-16T05:53:09.263Z,13.64
2022-11-16T05:55:35.952Z,13.68
2022-11-16T05:58:05.002Z,13.61
2022-11-16T06:00:31.535Z,13.58
2022-11-16T06:02:59.409Z,13.60
2022-11-16T06:05:26.020Z,13.72
2022-11-16T06:07:52.839Z,13.51
2022-11-16T06:10:19.381Z,13.70
2022-11-16T06:12:45.927Z,13.64
2022-11-16T06:15:12.476Z,13.56
2022-11-16T06:17:41.201Z,13.44
2022-11-16T06:20:11.113Z,13.36
2022-11-16T06:22:38.171Z,13.38
2022-11-16T06:25:05.727Z,13.35
2022-11-16T06:27:32.515Z,13.34
2022-11-16T06:29:59.043Z,13.48
2022-11-16T06:32:25.538Z,13.43
2022-11-16T06:34:52.033Z,13.39
2022-11-16T06:37:19.933Z,13.29
2022-11-16T06:39:46.444Z,13.19
2022-11-16T06:42:12.943Z,13.05
2022-11-16T06:44:39.534Z,12.97
2022-11-16T06:47:06.028Z,12.76
2022-11-16T06:49:32.487Z,12.59
2022-11-16T06:51:59.135Z,12.53
2022-11-16T06:54:26.962Z,12.48
2022-11-16T06:56:53.480Z,12.53
2022-11-16T06:59:20.326Z,12.46
2022-11-16T07:01:47.037Z,12.54
2022-11-16T07:04:13.636Z,12.59
2022-11-16T07:06:40.461Z,12.60
2022-11-16T07:09:07.614Z,12.50
2022-11-16T07:11:36.275Z,12.41
2022-11-16T07:14:03.060Z,12.44
2022-11-16T07:16:29.854Z,12.48
2022-11-16T07:18:56.806Z,12.57
2022-11-16T07:21:23.923Z,12.60
2022-11-16T07:23:50.490Z,12.41
2022-11-16T07:26:17.468Z,12.51
2022-11-16T07:28:48.456Z,12.73
2022-11-16T07:31:15.906Z,12.78
2022-11-16T07:33:42.579Z,12.96
2022-11-16T07:36:11.079Z,13.05
2022-11-16T07:38:37.866Z,13.15
2022-11-16T07:41:06.587Z,13.32
2022-11-16T07:43:34.202Z,13.39
2022-11-16T07:46:28.292Z,13.49
2022-11-16T07:48:51.833Z,13.47
2022-11-16T07:51:19.080Z,13.54
2022-11-16T07:53:46.275Z,13.46
2022-11-16T07:56:13.127Z,13.61
2022-11-16T07:58:39.850Z,13.58
2022-11-16T08:01:09.873Z,13.75
2022-11-16T08:03:39.305Z,13.81
2022-11-16T08:06:07.778Z,13.95
2022-11-16T08:08:34.805Z,14.06
2022-11-16T08:11:02.438Z,14.15
2022-11-16T08:13:29.490Z,14.20
2022-11-16T08:15:59.903Z,14.09
2022-11-16T08:18:27.830Z,14.12
2022-11-16T08:20:54.364Z,14.28
2022-11-16T08:23:21.000Z,14.27
2022-11-16T08:25:47.513Z,14.37
2022-11-16T08:28:13.999Z,14.52
2022-11-16T08:30:40.501Z,14.14
2022-11-16T08:33:07.558Z,14.20
2022-11-16T08:35:35.562Z,14.13
2022-11-16T08:38:02.188Z,14.13
2022-11-16T08:40:28.995Z,13.89
2022-11-16T08:42:55.527Z,13.86
2022-11-16T08:45:22.094Z,13.85
2022-11-16T08:47:48.676Z,13.79
2022-11-16T08:50:15.979Z,13.41
2022-11-16T08:52:44.035Z,13.38
2022-11-16T08:55:10.753Z,13.33
2022-11-16T08:57:46.235Z,13.39
2022-11-16T09:00:26.953Z,13.48
2022-11-16T09:02:53.973Z,13.53
2022-11-16T09:05:20.502Z,13.33
2022-11-16T09:07:48.366Z,13.54
2022-11-16T09:10:15.239Z,13.45
2022-11-16T09:12:41.760Z,13.55
2022-11-16T09:15:09.317Z,13.62
2022-11-16T09:17:35.836Z,14.26
2022-11-16T09:20:02.453Z,14.45
2022-11-16T09:22:28.945Z,14.62
2022-11-16T09:24:56.818Z,14.72
2022-11-16T09:27:23.411Z,14.96
2022-11-16T09:29:50.118Z,14.90
2022-11-16T09:32:16.641Z,14.99
2022-11-16T09:34:43.198Z,15.11
2022-11-16T09:37:09.699Z,15.28
2022-11-16T09:39:36.245Z,15.33
2022-11-16T09:42:25.485Z,15.37
2022-11-16T09:45:01.198Z,15.52
2022-11-16T09:47:40.136Z,15.46
2022-11-16T09:50:08.291Z,15.09
2022-11-16T09:52:44.138Z,14.85
2022-11-16T09:55:23.887Z,14.87
2022-11-16T09:57:54.324Z,14.85
2022-11-16T10:00:22.709Z,14.37
2022-11-16T10:02:59.989Z,14.42
2022-11-16T10:05:30.870Z,14.21
2022-11-16T10:08:18.183Z,14.20
2022-11-16T10:10:53.965Z,14.33
2022-11-16T10:13:36.706Z,14.57
2022-11-16T10:16:10.434Z,14.83
2022-11-16T10:18:46.994Z,14.73
2022-11-16T10:21:31.191Z,14.64
2022-11-16T10:24:16.055Z,14.92
2022-11-16T10:26:50.473Z,15.14
2022-11-16T10:29:31.669Z,15.21
2022-11-16T10:32:08.461Z,15.46
2022-11-16T10:34:45.503Z,15.43
2022-11-16T10:37:13.451Z,14.92
2022-11-16T10:39:40.973Z,14.83
2022-11-16T10:42:11.632Z,14.45
2022-11-16T10:44:44.042Z,14.64
2022-11-16T10:47:18.983Z,14.65
2022-11-16T10:49:53.503Z,14.52
2022-11-16T10:52:20.358Z,14.25
2022-11-16T10:54:46.891Z,14.14
2022-11-16T10:57:13.493Z,14.27
2022-11-16T10:59:43.383Z,14.43
2022-11-16T11:02:33.875Z,14.42
2022-11-16T11:05:04.549Z,14.52
2022-11-16T11:07:36.288Z,14.69
2022-11-16T11:10:03.856Z,14.68
2022-11-16T11:12:30.373Z,14.54
2022-11-16T11:15:05.131Z,14.64
2022-11-16T11:17:33.376Z,14.34
2022-11-16T11:20:01.979Z,14.37
2022-11-16T11:22:28.535Z,14.63
2022-11-16T11:24:55.152Z,14.73
2022-11-16T11:27:24.878Z,14.63
2022-11-16T11:29:53.535Z,14.49
2022-11-16T11:32:24.637Z,14.66
2022-11-16T11:34:53.695Z,14.52
2022-11-16T11:37:23.388Z,14.42
2022-11-16T11:40:05.537Z,14.55
2022-11-16T11:42:32.080Z,14.77
2022-11-16T11:45:02.059Z,14.71
2022-11-16T11:50:32.698Z,14.49
2022-11-16T11:53:05.365Z,14.71
2022-11-16T11:55:31.843Z,14.64
2022-11-16T11:58:00.212Z,14.67
2022-11-16T12:00:26.989Z,14.57
2022-11-16T12:03:21.746Z,14.81
2022-11-16T12:06:03.733Z,14.70
2022-11-16T12:08:47.245Z,14.67
2022-11-16T12:11:23.036Z,14.43
2022-11-16T12:14:00.328Z,14.72
2022-11-16T12:16:32.877Z,14.81
2022-11-16T12:22:28.559Z,14.49
2022-11-16T12:25:10.005Z,14.52
2022-11-16T12:27:46.966Z,14.72
2022-11-16T12:30:16.949Z,14.81
2022-11-16T12:33:01.754Z,14.83
2022-11-16T12:35:48.722Z,14.84
2022-11-16T12:38:37.851Z,14.52
2022-11-16T12:41:22.719Z,14.69
2022-11-16T12:43:59.325Z,14.85
2022-11-16T12:46:34.887Z,14.87
2022-11-16T12:49:31.380Z,15.05
2022-11-16T12:52:11.316Z,15.10
2022-11-16T12:55:25.358Z,14.96
2022-11-16T12:58:17.242Z,14.83
2022-11-16T13:00:55.992Z,14.83
2022-11-16T13:03:33.850Z,14.86
2022-11-16T13:06:05.790Z,14.72
2022-11-16T13:08:43.696Z,14.96
2022-11-16T13:11:17.702Z,14.96
2022-11-16T13:13:52.778Z,15.10
2022-11-16T13:16:21.663Z,14.96
2022-11-16T13:18:48.515Z,15.00
2022-11-16T13:21:35.982Z,14.89
2022-11-16T13:24:14.080Z,15.08
2022-11-16T13:26:49.139Z,15.01
2022-11-16T13:29:28.549Z,15.06
2022-11-16T13:32:01.897Z,14.60
2022-11-16T13:34:33.331Z,14.78
2022-11-16T13:37:02.783Z,14.73
2022-11-16T13:40:09.348Z,14.61
2022-11-16T13:42:44.455Z,14.76
2022-11-16T13:45:17.911Z,14.74
2022-11-16T13:47:49.975Z,14.95
2022-11-16T13:50:19.522Z,14.98
2022-11-16T13:53:46.237Z,14.75
2022-11-16T13:55:38.903Z,14.84
2022-11-16T13:58:11.115Z,14.82
2022-11-16T14:00:40.058Z,14.68
2022-11-16T14:03:29.087Z,14.42
2022-11-16T14:05:55.747Z,14.45
2022-11-16T14:08:50.562Z,14.37
2022-11-16T14:11:35.844Z,14.40
2022-11-16T14:14:05.959Z,14.49
2022-11-16T14:16:54.061Z,14.60
2022-11-16T14:19:53.454Z,14.56
2022-11-16T14:22:50.733Z,14.29
2022-11-16T14:25:30.334Z,14.26
2022-11-16T14:28:08.752Z,14.38
2022-11-16T14:30:50.915Z,14.34
2022-11-16T14:33:29.431Z,14.31
2022-11-16T14:35:56.271Z,14.35
2022-11-16T14:38:30.040Z,14.16
2022-11-16T14:40:59.976Z,14.33
2022-11-16T14:43:32.884Z,14.09
2022-11-16T14:46:06.147Z,14.15
2022-11-16T14:48:33.714Z,13.99
2022-11-16T14:51:06.906Z,14.00
2022-11-16T14:53:36.787Z,13.99
2022-11-16T14:56:10.077Z,13.96
2022-11-16T14:58:37.335Z,13.98
2022-11-16T15:01:13.897Z,14.02
2022-11-16T15:03:48.641Z,14.08
2022-11-16T15:06:16.353Z,13.99
2022-11-16T15:08:46.761Z,13.98
2022-11-16T15:11:22.344Z,13.84
2022-11-16T15:13:52.367Z,13.78
2022-11-16T15:16:20.798Z,13.69
2022-11-16T15:18:58.259Z,13.63
2022-11-16T15:21:26.288Z,13.66
2022-11-16T15:24:23.510Z,13.59
2022-11-16T15:26:40.629Z,13.61
2022-11-16T15:29:14.700Z,13.43
2022-11-16T15:31:46.025Z,13.47
2022-11-16T15:34:13.944Z,13.43
2022-11-16T15:36:42.684Z,13.34
2022-11-16T15:39:13.948Z,13.26
2022-11-16T15:41:43.446Z,13.27
2022-11-16T15:44:15.557Z,13.22
2022-11-16T15:46:47.171Z,13.14
2022-11-16T15:49:30.334Z,13.04
2022-11-16T15:51:58.250Z,12.95
2022-11-16T15:54:26.659Z,12.96
2022-11-16T15:56:55.455Z,12.89
2022-11-16T15:59:26.799Z,12.89
2022-11-16T16:01:55.650Z,12.88
2022-11-16T16:04:24.240Z,12.73
2022-11-16T16:06:52.656Z,12.74
2022-11-16T16:09:25.824Z,12.75
2022-11-16T16:11:54.202Z,12.76
2022-11-16T16:14:26.660Z,12.62
2022-11-16T16:16:56.723Z,12.53
2022-11-16T16:19:33.569Z,12.48
2022-11-16T16:22:00.418Z,12.46
2022-11-16T16:24:39.840Z,12.38
2022-11-16T16:27:15.545Z,12.38
2022-11-16T16:29:44.754Z,12.32
2022-11-16T16:32:23.641Z,12.39
2022-11-16T16:34:53.014Z,12.40
2022-11-16T16:37:25.588Z,12.45
2022-11-16T16:39:52.187Z,12.64
2022-11-16T16:42:19.004Z,12.59
2022-11-16T16:44:46.937Z,12.52
2022-11-16T16:47:13.957Z,12.48
2022-11-16T16:49:43.300Z,12.41
2022-11-16T16:52:12.046Z,12.42
2022-11-16T16:54:39.950Z,12.19
2022-11-16T16:57:07.136Z,12.26
2022-11-16T16:59:33.667Z,12.19
2022-11-16T17:02:00.544Z,12.19
2022-11-16T17:04:27.077Z,12.05
2022-11-16T17:06:55.422Z,12.08
2022-11-16T17:09:21.995Z,12.13
2022-11-16T17:11:49.284Z,12.08
2022-11-16T17:14:16.052Z,11.98
2022-11-16T17:16:45.052Z,11.96
2022-11-16T17:19:12.067Z,11.97
2022-11-16T17:21:38.664Z,11.89
2022-11-16T17:24:08.322Z,11.80
2022-11-16T17:26:35.640Z,11.87
2022-11-16T17:29:02.687Z,11.79
2022-11-16T17:31:29.383Z,11.85
2022-11-16T17:33:56.598Z,11.82
2022-11-16T17:36:23.766Z,11.69
2022-11-16T17:38:53.446Z,11.64
2022-11-16T17:41:21.736Z,11.73
2022-11-16T17:43:51.646Z,11.71
2022-11-16T17:46:20.719Z,11.78
2022-11-16T17:48:51.562Z,11.72
2022-11-16T17:51:23.373Z,11.60
2022-11-16T17:53:51.960Z,11.56
2022-11-16T17:56:22.186Z,11.74
2022-11-16T17:58:49.690Z,11.59
2022-11-16T18:01:16.537Z,11.65
2022-11-16T18:03:43.491Z,11.57
2022-11-16T18:06:14.911Z,11.59
2022-11-16T18:08:42.913Z,11.59
2022-11-16T18:11:15.168Z,11.64
2022-11-16T18:13:44.712Z,11.61
2022-11-16T18:16:13.059Z,11.62
2022-11-16T18:18:40.277Z,11.56
2022-11-16T18:21:08.213Z,11.48
2022-11-16T18:23:40.216Z,11.54
2022-11-16T18:26:11.109Z,11.47
2022-11-16T18:28:37.858Z,11.50
2022-11-16T18:31:10.754Z,11.56
2022-11-16T18:33:38.586Z,11.45
2022-11-16T18:36:06.464Z,11.47
2022-11-16T18:38:33.245Z,11.43
2022-11-16T18:41:07.025Z,11.37
2022-11-16T18:43:37.243Z,11.33
2022-11-16T18:46:06.368Z,11.36
2022-11-16T18:48:33.179Z,11.45
2022-11-16T18:51:00.911Z,11.36
2022-11-16T18:53:28.604Z,11.35
2022-11-16T18:55:58.212Z,11.35
2022-11-16T18:58:49.272Z,11.42
2022-11-16T19:01:17.960Z,11.33
2022-11-16T19:03:44.848Z,11.33
2022-11-16T19:06:12.330Z,11.42
2022-11-16T19:08:40.910Z,11.49
2022-11-16T19:11:09.919Z,11.46
2022-11-16T19:13:37.163Z,11.57
2022-11-16T19:16:04.425Z,11.49
2022-11-16T19:18:32.448Z,11.53
2022-11-16T19:21:03.835Z,11.58
2022-11-16T19:23:30.476Z,11.56
2022-11-16T19:26:00.583Z,11.61
2022-11-16T19:28:27.142Z,11.60
2022-11-16T19:30:53.748Z,11.66
2022-11-16T19:33:20.397Z,11.63
2022-11-16T19:35:48.341Z,11.67
2022-11-16T19:38:15.082Z,11.70
2022-11-16T19:40:41.779Z,11.72
2022-11-16T19:43:08.670Z,11.67
2022-11-16T19:45:35.584Z,11.72
2022-11-16T19:48:02.201Z,11.75
2022-11-16T19:50:29.590Z,11.95
2022-11-16T19:52:57.474Z,11.96
2022-11-16T19:55:24.530Z,12.04
2022-11-16T19:57:51.457Z,12.12
2022-11-16T20:00:18.592Z,12.35
2022-11-16T20:02:57.769Z,12.39
2022-11-16T20:05:31.450Z,12.39
2022-11-16T20:08:14.544Z,12.40
2022-11-16T20:10:41.365Z,12.53
2022-11-16T20:13:08.714Z,12.53
2022-11-16T20:18:24.615Z,12.36
2022-11-16T20:20:54.418Z,12.38
2022-11-16T22:33:51.961Z,12.64
2022-11-16T22:43:34.592Z,12.39
2022-11-16T22:46:37.292Z,12.60
2022-11-16T22:52:45.537Z,12.41
2022-11-16T22:55:38.805Z,12.46
2022-11-16T23:03:32.546Z,12.48
2022-11-16T23:05:43.692Z,12.51
2022-11-16T23:15:30.443Z,12.37
2022-11-16T23:21:28.524Z,12.42
2022-11-16T23:24:22.958Z,12.34
2022-11-16T23:26:53.461Z,12.40
2022-11-16T23:32:58.617Z,12.30
2022-11-16T23:35:32.114Z,12.36
2022-11-16T23:44:57.593Z,12.24
2022-11-16T23:47:26.768Z,12.39
2022-11-16T23:50:40.974Z,12.32
2022-11-16T23:53:14.885Z,12.18
2022-11-16T23:55:45.213Z,12.29
2022-11-16T23:58:15.942Z,12.16
